aviador You're here:

KQKG Decoded Metar

in
Report Time2017-11-23 13:55:00
UTC Time2017-11-23 14:54:54
Flight Rules vfr VFR
Wind070° at 04 Gusting to 10 kt
W.Rank070° ranks 29
Current wind is above 070° avg. (2.9)
Visibility9999 m
Phenomena:N/A
Clouds:N/A
Expected CloudBase > 3,600 ft AGL from Temp-Dew spread
CeilingNone
Temp23°C
Dew Point14°C (57% RH)
AAT22.8°C
QNH1009 hPa
Raw Report
METAR KQKG 231355Z AUTO 07004G10KT 10SM CLR 23/14 A2979 RMK AO2 LTG
DSNT S SLP007 WND DATA ESTMD T02290137 $=

Extra information for KQKG:More info

Social comments